sensor_id;sensor_type;location;lat;lon;timestamp;pressure;altitude;pressure_sealevel;temperature;humidity
39411;BME280;26579;43.238;23.124;2022-12-07T00:00:41;96994.47;;;6.23;83.79
39411;BME280;26579;43.238;23.124;2022-12-07T00:03:06;96983.84;;;6.13;83.48
39411;BME280;26579;43.238;23.124;2022-12-07T00:05:32;97002.31;;;6.22;84.07
39411;BME280;26579;43.238;23.124;2022-12-07T00:07:57;97005.81;;;6.21;83.86
39411;BME280;26579;43.238;23.124;2022-12-07T00:10:23;96981.56;;;6.09;83.89
39411;BME280;26579;43.238;23.124;2022-12-07T00:12:49;96980.16;;;6.18;83.75
39411;BME280;26579;43.238;23.124;2022-12-07T00:15:14;96987.06;;;6.31;82.76
39411;BME280;26579;43.238;23.124;2022-12-07T00:17:40;96964.25;;;6.24;82.70
39411;BME280;26579;43.238;23.124;2022-12-07T00:20:06;96983.94;;;6.26;82.85
39411;BME280;26579;43.238;23.124;2022-12-07T00:22:32;96978.31;;;6.20;83.29
39411;BME280;26579;43.238;23.124;2022-12-07T00:24:58;96984.94;;;6.24;82.93
39411;BME280;26579;43.238;23.124;2022-12-07T00:27:23;96982.94;;;6.15;83.81
39411;BME280;26579;43.238;23.124;2022-12-07T00:29:49;96977.47;;;6.19;83.72
39411;BME280;26579;43.238;23.124;2022-12-07T00:32:14;96965.47;;;6.18;82.90
39411;BME280;26579;43.238;23.124;2022-12-07T00:34:40;96979.50;;;6.28;82.62
39411;BME280;26579;43.238;23.124;2022-12-07T00:37:06;96987.91;;;6.18;83.46
39411;BME280;26579;43.238;23.124;2022-12-07T00:39:31;96986.94;;;6.06;83.86
39411;BME280;26579;43.238;23.124;2022-12-07T00:41:57;96986.75;;;6.09;83.98
39411;BME280;26579;43.238;23.124;2022-12-07T00:44:23;96985.97;;;6.21;83.10
39411;BME280;26579;43.238;23.124;2022-12-07T00:46:48;97002.66;;;6.30;82.77
39411;BME280;26579;43.238;23.124;2022-12-07T00:49:14;96980.94;;;6.32;82.25
39411;BME280;26579;43.238;23.124;2022-12-07T00:51:40;96973.88;;;6.22;82.49
39411;BME280;26579;43.238;23.124;2022-12-07T00:54:05;96974.06;;;6.19;82.27
39411;BME280;26579;43.238;23.124;2022-12-07T00:56:31;96992.28;;;6.17;82.68
39411;BME280;26579;43.238;23.124;2022-12-07T00:58:59;96956.75;;;6.06;82.54
39411;BME280;26579;43.238;23.124;2022-12-07T01:01:28;96982.22;;;6.12;82.60
39411;BME280;26579;43.238;23.124;2022-12-07T01:03:54;96986.91;;;6.20;82.52
39411;BME280;26579;43.238;23.124;2022-12-07T01:06:21;96975.81;;;6.18;82.33
39411;BME280;26579;43.238;23.124;2022-12-07T01:08:47;96972.19;;;6.08;82.86
39411;BME280;26579;43.238;23.124;2022-12-07T01:11:15;96981.47;;;6.10;83.61
39411;BME280;26579;43.238;23.124;2022-12-07T01:13:41;96989.69;;;6.17;83.15
39411;BME280;26579;43.238;23.124;2022-12-07T01:16:07;96979.44;;;6.16;82.94
39411;BME280;26579;43.238;23.124;2022-12-07T01:18:36;96987.41;;;6.25;82.17
39411;BME280;26579;43.238;23.124;2022-12-07T01:23:28;96982.50;;;6.35;82.34
39411;BME280;26579;43.238;23.124;2022-12-07T01:25:56;96977.00;;;6.27;82.17
39411;BME280;26579;43.238;23.124;2022-12-07T01:28:21;96978.59;;;6.15;83.12
39411;BME280;26579;43.238;23.124;2022-12-07T01:31:00;97012.06;;;6.31;82.98
39411;BME280;26579;43.238;23.124;2022-12-07T01:33:31;97006.06;;;6.30;82.88
39411;BME280;26579;43.238;23.124;2022-12-07T01:36:07;97008.84;;;6.27;83.12
39411;BME280;26579;43.238;23.124;2022-12-07T01:38:34;96997.63;;;6.14;83.85
39411;BME280;26579;43.238;23.124;2022-12-07T01:41:01;96998.81;;;6.23;83.52
39411;BME280;26579;43.238;23.124;2022-12-07T01:43:30;96988.34;;;6.24;83.38
39411;BME280;26579;43.238;23.124;2022-12-07T01:45:56;96993.38;;;6.13;83.99
39411;BME280;26579;43.238;23.124;2022-12-07T01:48:26;96976.75;;;6.17;83.79
39411;BME280;26579;43.238;23.124;2022-12-07T01:50:55;96971.28;;;6.22;83.50
39411;BME280;26579;43.238;23.124;2022-12-07T01:53:24;96974.69;;;6.22;83.04
39411;BME280;26579;43.238;23.124;2022-12-07T01:55:52;96977.53;;;6.32;82.26
39411;BME280;26579;43.238;23.124;2022-12-07T01:58:18;96969.03;;;6.30;82.00
39411;BME280;26579;43.238;23.124;2022-12-07T02:00:45;96973.19;;;6.32;81.56
39411;BME280;26579;43.238;23.124;2022-12-07T02:03:25;96960.75;;;6.25;81.32
39411;BME280;26579;43.238;23.124;2022-12-07T02:05:53;96961.97;;;6.19;81.20
39411;BME280;26579;43.238;23.124;2022-12-07T02:08:19;96970.38;;;6.23;82.06
39411;BME280;26579;43.238;23.124;2022-12-07T02:10:45;96967.66;;;6.24;80.75
39411;BME280;26579;43.238;23.124;2022-12-07T02:13:16;96969.31;;;6.25;80.75
39411;BME280;26579;43.238;23.124;2022-12-07T02:21:52;96935.44;;;6.30;79.94
39411;BME280;26579;43.238;23.124;2022-12-07T02:24:43;96946.00;;;6.40;80.12
39411;BME280;26579;43.238;23.124;2022-12-07T02:30:12;96939.03;;;6.27;80.69
39411;BME280;26579;43.238;23.124;2022-12-07T02:35:23;96945.56;;;6.33;80.87
39411;BME280;26579;43.238;23.124;2022-12-07T02:43:06;96914.94;;;6.27;80.67
39411;BME280;26579;43.238;23.124;2022-12-07T02:45:35;96912.56;;;6.24;81.02
39411;BME280;26579;43.238;23.124;2022-12-07T02:48:05;96907.72;;;6.32;80.75
39411;BME280;26579;43.238;23.124;2022-12-07T02:50:32;96903.56;;;6.29;80.63
39411;BME280;26579;43.238;23.124;2022-12-07T02:52:58;96906.97;;;6.17;81.89
39411;BME280;26579;43.238;23.124;2022-12-07T02:55:28;96897.13;;;6.22;81.78
39411;BME280;26579;43.238;23.124;2022-12-07T02:58:19;96884.81;;;6.13;82.52
39411;BME280;26579;43.238;23.124;2022-12-07T03:00:58;96872.47;;;6.04;82.65
39411;BME280;26579;43.238;23.124;2022-12-07T03:03:28;96879.00;;;6.09;82.44
39411;BME280;26579;43.238;23.124;2022-12-07T03:08:54;96880.38;;;6.15;82.80
39411;BME280;26579;43.238;23.124;2022-12-07T03:11:25;96894.94;;;6.16;82.95
39411;BME280;26579;43.238;23.124;2022-12-07T03:14:13;96892.06;;;6.21;83.01
39411;BME280;26579;43.238;23.124;2022-12-07T03:16:50;96876.22;;;6.12;82.39
39411;BME280;26579;43.238;23.124;2022-12-07T03:19:20;96890.91;;;6.12;83.08
39411;BME280;26579;43.238;23.124;2022-12-07T03:21:51;96880.72;;;5.96;83.70
39411;BME280;26579;43.238;23.124;2022-12-07T03:24:22;96902.63;;;6.18;83.25
39411;BME280;26579;43.238;23.124;2022-12-07T03:26:59;96910.66;;;6.13;83.30
39411;BME280;26579;43.238;23.124;2022-12-07T03:29:37;96890.19;;;6.10;83.39
39411;BME280;26579;43.238;23.124;2022-12-07T03:32:11;96899.59;;;6.11;83.24
39411;BME280;26579;43.238;23.124;2022-12-07T03:34:50;96916.56;;;6.15;83.72
39411;BME280;26579;43.238;23.124;2022-12-07T03:40:16;96906.84;;;6.19;81.10
39411;BME280;26579;43.238;23.124;2022-12-07T03:42:45;96907.03;;;6.16;81.52
39411;BME280;26579;43.238;23.124;2022-12-07T03:45:12;96883.75;;;6.03;80.96
39411;BME280;26579;43.238;23.124;2022-12-07T03:50:39;96898.47;;;6.15;81.14
39411;BME280;26579;43.238;23.124;2022-12-07T03:53:17;96909.75;;;6.14;81.26
39411;BME280;26579;43.238;23.124;2022-12-07T03:55:46;96892.97;;;6.07;81.64
39411;BME280;26579;43.238;23.124;2022-12-07T03:58:16;96908.81;;;6.15;81.95
39411;BME280;26579;43.238;23.124;2022-12-07T04:00:43;96913.69;;;6.20;81.82
39411;BME280;26579;43.238;23.124;2022-12-07T04:03:10;96891.00;;;6.10;81.77
39411;BME280;26579;43.238;23.124;2022-12-07T04:05:36;96909.19;;;6.09;82.50
39411;BME280;26579;43.238;23.124;2022-12-07T04:08:02;96895.53;;;6.07;82.02
39411;BME280;26579;43.238;23.124;2022-12-07T04:10:28;96893.38;;;6.13;81.28
39411;BME280;26579;43.238;23.124;2022-12-07T04:12:53;96897.72;;;6.13;81.73
39411;BME280;26579;43.238;23.124;2022-12-07T04:15:19;96884.31;;;6.21;81.37
39411;BME280;26579;43.238;23.124;2022-12-07T04:17:45;96889.69;;;6.18;81.84
39411;BME280;26579;43.238;23.124;2022-12-07T04:20:11;96884.19;;;6.22;81.61
39411;BME280;26579;43.238;23.124;2022-12-07T04:22:37;96883.50;;;6.20;81.60
39411;BME280;26579;43.238;23.124;2022-12-07T04:25:03;96886.41;;;6.28;81.61
39411;BME280;26579;43.238;23.124;2022-12-07T04:27:29;96885.69;;;6.26;81.57
39411;BME280;26579;43.238;23.124;2022-12-07T04:29:55;96883.09;;;6.26;81.76
39411;BME280;26579;43.238;23.124;2022-12-07T04:32:20;96879.03;;;6.22;81.63
39411;BME280;26579;43.238;23.124;2022-12-07T04:34:46;96866.81;;;6.11;81.70
39411;BME280;26579;43.238;23.124;2022-12-07T04:37:12;96881.63;;;6.22;81.90
39411;BME280;26579;43.238;23.124;2022-12-07T04:39:38;96875.53;;;6.23;81.28
39411;BME280;26579;43.238;23.124;2022-12-07T04:42:03;96869.75;;;6.20;81.66
39411;BME280;26579;43.238;23.124;2022-12-07T04:44:29;96861.53;;;6.13;82.13
39411;BME280;26579;43.238;23.124;2022-12-07T04:46:56;96853.97;;;6.10;81.82
39411;BME280;26579;43.238;23.124;2022-12-07T04:49:22;96846.78;;;6.15;81.51
39411;BME280;26579;43.238;23.124;2022-12-07T04:51:49;96855.16;;;6.19;81.51
39411;BME280;26579;43.238;23.124;2022-12-07T04:54:16;96852.81;;;6.28;80.80
39411;BME280;26579;43.238;23.124;2022-12-07T04:56:42;96845.13;;;6.14;81.19
39411;BME280;26579;43.238;23.124;2022-12-07T04:59:09;96848.72;;;6.11;81.17
39411;BME280;26579;43.238;23.124;2022-12-07T05:01:35;96848.81;;;6.10;81.21
39411;BME280;26579;43.238;23.124;2022-12-07T05:04:02;96843.25;;;6.16;81.59
39411;BME280;26579;43.238;23.124;2022-12-07T05:06:28;96829.81;;;6.11;81.21
39411;BME280;26579;43.238;23.124;2022-12-07T05:08:53;96834.97;;;6.11;81.33
39411;BME280;26579;43.238;23.124;2022-12-07T05:11:19;96835.28;;;6.19;80.40
39411;BME280;26579;43.238;23.124;2022-12-07T05:13:45;96844.19;;;6.28;80.29
39411;BME280;26579;43.238;23.124;2022-12-07T05:16:10;96845.41;;;6.22;80.72
39411;BME280;26579;43.238;23.124;2022-12-07T05:18:36;96829.28;;;6.19;80.92
39411;BME280;26579;43.238;23.124;2022-12-07T05:21:02;96827.97;;;6.26;80.79
39411;BME280;26579;43.238;23.124;2022-12-07T05:23:27;96826.91;;;6.16;81.55
39411;BME280;26579;43.238;23.124;2022-12-07T05:25:53;96790.59;;;6.04;81.11
39411;BME280;26579;43.238;23.124;2022-12-07T05:28:19;96830.84;;;6.34;80.75
39411;BME280;26579;43.238;23.124;2022-12-07T05:30:45;96803.75;;;6.14;80.98
39411;BME280;26579;43.238;23.124;2022-12-07T05:33:11;96824.44;;;6.14;81.55
39411;BME280;26579;43.238;23.124;2022-12-07T05:35:36;96827.66;;;6.30;81.28
39411;BME280;26579;43.238;23.124;2022-12-07T05:38:02;96832.28;;;6.25;81.60
39411;BME280;26579;43.238;23.124;2022-12-07T05:40:28;96815.13;;;6.11;82.14
39411;BME280;26579;43.238;23.124;2022-12-07T05:42:53;96828.38;;;6.20;81.81
39411;BME280;26579;43.238;23.124;2022-12-07T05:45:19;96837.47;;;6.25;81.44
39411;BME280;26579;43.238;23.124;2022-12-07T05:47:45;96836.63;;;6.12;82.13
39411;BME280;26579;43.238;23.124;2022-12-07T05:50:10;96835.88;;;6.10;82.43
39411;BME280;26579;43.238;23.124;2022-12-07T05:52:36;96837.38;;;6.14;82.25
39411;BME280;26579;43.238;23.124;2022-12-07T05:55:02;96823.28;;;6.05;81.97
39411;BME280;26579;43.238;23.124;2022-12-07T05:57:27;96839.94;;;6.14;82.22
39411;BME280;26579;43.238;23.124;2022-12-07T05:59:53;96834.56;;;6.17;82.06
39411;BME280;26579;43.238;23.124;2022-12-07T06:02:19;96837.66;;;6.22;81.80
39411;BME280;26579;43.238;23.124;2022-12-07T06:04:46;96842.84;;;6.22;81.75
39411;BME280;26579;43.238;23.124;2022-12-07T06:07:13;96833.22;;;6.11;81.95
39411;BME280;26579;43.238;23.124;2022-12-07T06:09:39;96846.28;;;6.23;82.00
39411;BME280;26579;43.238;23.124;2022-12-07T06:12:06;96850.69;;;6.08;82.56
39411;BME280;26579;43.238;23.124;2022-12-07T06:14:31;96839.22;;;6.12;82.15
39411;BME280;26579;43.238;23.124;2022-12-07T06:16:58;96835.28;;;6.06;82.16
39411;BME280;26579;43.238;23.124;2022-12-07T06:19:23;96840.97;;;6.11;82.25
39411;BME280;26579;43.238;23.124;2022-12-07T06:21:49;96858.06;;;6.27;82.20
39411;BME280;26579;43.238;23.124;2022-12-07T06:24:16;96874.81;;;6.34;81.51
39411;BME280;26579;43.238;23.124;2022-12-07T06:26:42;96843.38;;;6.27;81.49
39411;BME280;26579;43.238;23.124;2022-12-07T06:29:08;96866.03;;;6.37;81.40
39411;BME280;26579;43.238;23.124;2022-12-07T06:31:35;96849.28;;;6.29;81.09
39411;BME280;26579;43.238;23.124;2022-12-07T06:34:06;96873.78;;;6.37;81.22
39411;BME280;26579;43.238;23.124;2022-12-07T06:36:32;96858.78;;;6.29;81.31
39411;BME280;26579;43.238;23.124;2022-12-07T06:38:58;96848.94;;;6.21;81.08
39411;BME280;26579;43.238;23.124;2022-12-07T06:41:24;96868.19;;;6.30;81.07
39411;BME280;26579;43.238;23.124;2022-12-07T06:43:50;96871.00;;;6.40;80.78
39411;BME280;26579;43.238;23.124;2022-12-07T06:46:16;96880.53;;;6.39;81.56
39411;BME280;26579;43.238;23.124;2022-12-07T06:48:42;96857.97;;;6.28;81.50
39411;BME280;26579;43.238;23.124;2022-12-07T06:51:09;96877.31;;;6.35;81.34
39411;BME280;26579;43.238;23.124;2022-12-07T06:53:35;96869.25;;;6.40;81.22
39411;BME280;26579;43.238;23.124;2022-12-07T06:56:01;96871.13;;;6.51;81.13
39411;BME280;26579;43.238;23.124;2022-12-07T06:58:27;96872.25;;;6.47;81.11
39411;BME280;26579;43.238;23.124;2022-12-07T07:00:53;96859.81;;;6.39;80.90
39411;BME280;26579;43.238;23.124;2022-12-07T07:03:19;96869.75;;;6.45;81.00
39411;BME280;26579;43.238;23.124;2022-12-07T07:05:45;96846.19;;;6.37;81.29
39411;BME280;26579;43.238;23.124;2022-12-07T07:08:12;96854.03;;;6.35;81.87
39411;BME280;26579;43.238;23.124;2022-12-07T07:10:38;96859.84;;;6.52;81.36
39411;BME280;26579;43.238;23.124;2022-12-07T07:13:04;96849.72;;;6.49;80.98
39411;BME280;26579;43.238;23.124;2022-12-07T07:15:30;96862.84;;;6.58;80.98
39411;BME280;26579;43.238;23.124;2022-12-07T07:17:55;96844.84;;;6.57;80.57
39411;BME280;26579;43.238;23.124;2022-12-07T07:20:21;96840.72;;;6.54;80.71
39411;BME280;26579;43.238;23.124;2022-12-07T07:22:48;96853.84;;;6.64;80.92
39411;BME280;26579;43.238;23.124;2022-12-07T07:25:14;96844.75;;;6.58;80.58
39411;BME280;26579;43.238;23.124;2022-12-07T07:27:40;96860.06;;;6.62;80.61
39411;BME280;26579;43.238;23.124;2022-12-07T07:30:06;96840.53;;;6.57;80.74
39411;BME280;26579;43.238;23.124;2022-12-07T07:32:32;96848.28;;;6.57;81.17
39411;BME280;26579;43.238;23.124;2022-12-07T07:34:58;96860.06;;;6.62;81.30
39411;BME280;26579;43.238;23.124;2022-12-07T07:37:23;96871.44;;;6.59;81.33
39411;BME280;26579;43.238;23.124;2022-12-07T07:39:49;96850.53;;;6.49;81.59
39411;BME280;26579;43.238;23.124;2022-12-07T07:42:15;96834.28;;;6.47;81.60
39411;BME280;26579;43.238;23.124;2022-12-07T07:44:42;96844.53;;;6.49;81.85
39411;BME280;26579;43.238;23.124;2022-12-07T07:47:08;96860.16;;;6.60;82.22
39411;BME280;26579;43.238;23.124;2022-12-07T07:49:34;96841.97;;;6.62;81.99
39411;BME280;26579;43.238;23.124;2022-12-07T07:51:59;96855.63;;;6.64;81.70
39411;BME280;26579;43.238;23.124;2022-12-07T07:54:25;96842.56;;;6.52;82.42
39411;BME280;26579;43.238;23.124;2022-12-07T07:56:52;96843.09;;;6.45;82.67
39411;BME280;26579;43.238;23.124;2022-12-07T07:59:17;96849.09;;;6.58;82.44
39411;BME280;26579;43.238;23.124;2022-12-07T08:01:43;96857.19;;;6.66;82.49
39411;BME280;26579;43.238;23.124;2022-12-07T08:04:09;96862.84;;;6.71;82.03
39411;BME280;26579;43.238;23.124;2022-12-07T08:06:35;96861.00;;;6.73;82.45
39411;BME280;26579;43.238;23.124;2022-12-07T08:09:01;96859.22;;;6.74;82.16
39411;BME280;26579;43.238;23.124;2022-12-07T08:11:26;96868.84;;;6.72;82.15
39411;BME280;26579;43.238;23.124;2022-12-07T08:13:52;96848.34;;;6.69;81.85
39411;BME280;26579;43.238;23.124;2022-12-07T08:16:18;96858.41;;;6.73;81.93
39411;BME280;26579;43.238;23.124;2022-12-07T08:18:43;96865.00;;;6.77;82.22
39411;BME280;26579;43.238;23.124;2022-12-07T08:21:14;96859.75;;;6.79;82.50
39411;BME280;26579;43.238;23.124;2022-12-07T08:23:40;96862.53;;;6.89;81.68
39411;BME280;26579;43.238;23.124;2022-12-07T08:26:08;96871.03;;;6.91;81.96
39411;BME280;26579;43.238;23.124;2022-12-07T08:28:35;96864.41;;;6.99;81.52
39411;BME280;26579;43.238;23.124;2022-12-07T08:31:01;96850.50;;;7.00;80.70
39411;BME280;26579;43.238;23.124;2022-12-07T08:33:27;96865.00;;;7.16;80.62
39411;BME280;26579;43.238;23.124;2022-12-07T08:35:53;96858.38;;;7.12;80.95
39411;BME280;26579;43.238;23.124;2022-12-07T08:38:19;96853.09;;;7.13;81.13
39411;BME280;26579;43.238;23.124;2022-12-07T08:40:44;96844.47;;;7.25;80.78
39411;BME280;26579;43.238;23.124;2022-12-07T08:43:10;96867.44;;;7.43;80.59
39411;BME280;26579;43.238;23.124;2022-12-07T08:45:36;96855.81;;;7.48;79.97
39411;BME280;26579;43.238;23.124;2022-12-07T08:48:13;96833.97;;;7.40;80.33
39411;BME280;26579;43.238;23.124;2022-12-07T08:50:39;96839.53;;;7.46;79.61
39411;BME280;26579;43.238;23.124;2022-12-07T08:53:06;96844.78;;;7.58;79.68
39411;BME280;26579;43.238;23.124;2022-12-07T08:55:33;96831.09;;;7.56;79.51
39411;BME280;26579;43.238;23.124;2022-12-07T08:57:59;96830.44;;;7.65;78.85
39411;BME280;26579;43.238;23.124;2022-12-07T09:00:26;96819.03;;;7.67;78.88
39411;BME280;26579;43.238;23.124;2022-12-07T09:02:53;96819.66;;;7.71;79.01
39411;BME280;26579;43.238;23.124;2022-12-07T09:05:19;96817.81;;;7.84;78.40
39411;BME280;26579;43.238;23.124;2022-12-07T09:07:47;96828.31;;;7.83;78.46
39411;BME280;26579;43.238;23.124;2022-12-07T09:10:14;96794.22;;;7.76;77.91
39411;BME280;26579;43.238;23.124;2022-12-07T09:12:39;96794.75;;;7.92;78.49
39411;BME280;26579;43.238;23.124;2022-12-07T09:15:05;96809.03;;;7.98;77.76
39411;BME280;26579;43.238;23.124;2022-12-07T09:17:32;96805.31;;;8.13;77.50
39411;BME280;26579;43.238;23.124;2022-12-07T09:19:58;96788.34;;;8.09;77.66
39411;BME280;26579;43.238;23.124;2022-12-07T09:22:24;96794.41;;;8.32;77.76
39411;BME280;26579;43.238;23.124;2022-12-07T09:24:50;96788.66;;;8.40;77.16
39411;BME280;26579;43.238;23.124;2022-12-07T09:27:15;96778.91;;;8.44;77.08
39411;BME280;26579;43.238;23.124;2022-12-07T09:29:41;96767.19;;;8.38;76.63
39411;BME280;26579;43.238;23.124;2022-12-07T09:32:06;96782.91;;;8.48;77.00
39411;BME280;26579;43.238;23.124;2022-12-07T09:34:32;96760.94;;;8.41;76.75
39411;BME280;26579;43.238;23.124;2022-12-07T09:37:00;96768.63;;;8.42;77.74
39411;BME280;26579;43.238;23.124;2022-12-07T09:39:26;96777.38;;;8.52;77.18
39411;BME280;26579;43.238;23.124;2022-12-07T09:41:52;96771.22;;;8.53;76.90
39411;BME280;26579;43.238;23.124;2022-12-07T09:44:23;96772.78;;;8.67;77.40
39411;BME280;26579;43.238;23.124;2022-12-07T09:46:49;96766.41;;;8.71;77.00
39411;BME280;26579;43.238;23.124;2022-12-07T09:49:18;96761.34;;;8.70;77.40
39411;BME280;26579;43.238;23.124;2022-12-07T09:51:44;96759.09;;;8.65;76.74
39411;BME280;26579;43.238;23.124;2022-12-07T09:54:16;96770.28;;;8.66;77.21
39411;BME280;26579;43.238;23.124;2022-12-07T09:56:43;96760.72;;;8.55;77.89
39411;BME280;26579;43.238;23.124;2022-12-07T09:59:15;96760.03;;;8.53;77.93
39411;BME280;26579;43.238;23.124;2022-12-07T10:01:42;96769.47;;;8.54;77.92
39411;BME280;26579;43.238;23.124;2022-12-07T10:04:18;96758.25;;;8.53;79.14
39411;BME280;26579;43.238;23.124;2022-12-07T10:06:45;96762.16;;;8.48;80.05
39411;BME280;26579;43.238;23.124;2022-12-07T10:09:12;96758.75;;;8.58;79.28
39411;BME280;26579;43.238;23.124;2022-12-07T10:11:58;96749.25;;;8.35;80.17
39411;BME280;26579;43.238;23.124;2022-12-07T10:14:23;96743.94;;;8.36;80.55
39411;BME280;26579;43.238;23.124;2022-12-07T10:16:51;96745.72;;;8.36;80.34
39411;BME280;26579;43.238;23.124;2022-12-07T10:19:30;96740.50;;;8.25;80.66
39411;BME280;26579;43.238;23.124;2022-12-07T10:22:19;96746.88;;;8.32;81.15
39411;BME280;26579;43.238;23.124;2022-12-07T10:24:46;96724.63;;;8.29;81.46
39411;BME280;26579;43.238;23.124;2022-12-07T10:27:22;96746.09;;;8.43;81.60
39411;BME280;26579;43.238;23.124;2022-12-07T10:29:52;96725.56;;;8.39;81.40
39411;BME280;26579;43.238;23.124;2022-12-07T10:34:43;96718.00;;;8.25;81.53
39411;BME280;26579;43.238;23.124;2022-12-07T10:39:52;96732.25;;;8.31;81.36
39411;BME280;26579;43.238;23.124;2022-12-07T10:42:29;96724.13;;;8.24;81.89
39411;BME280;26579;43.238;23.124;2022-12-07T10:45:16;96727.06;;;8.31;81.80
39411;BME280;26579;43.238;23.124;2022-12-07T10:47:52;96725.19;;;8.33;81.57
39411;BME280;26579;43.238;23.124;2022-12-07T11:01:18;96707.41;;;8.62;79.83
39411;BME280;26579;43.238;23.124;2022-12-07T11:07:42;96691.38;;;8.79;79.15
39411;BME280;26579;43.238;23.124;2022-12-07T11:21:58;96669.66;;;9.13;77.80
39411;BME280;26579;43.238;23.124;2022-12-07T11:24:43;96683.06;;;8.97;77.48
39411;BME280;26579;43.238;23.124;2022-12-07T11:30:19;96685.84;;;9.16;77.77
39411;BME280;26579;43.238;23.124;2022-12-07T11:33:27;96680.75;;;9.26;77.14
39411;BME280;26579;43.238;23.124;2022-12-07T11:35:48;96665.91;;;9.17;77.56
39411;BME280;26579;43.238;23.124;2022-12-07T11:38:23;96663.63;;;9.23;77.65
39411;BME280;26579;43.238;23.124;2022-12-07T11:40:53;96644.41;;;9.15;77.71
39411;BME280;26579;43.238;23.124;2022-12-07T11:43:22;96653.50;;;9.41;77.51
39411;BME280;26579;43.238;23.124;2022-12-07T11:46:03;96638.94;;;9.29;77.91
39411;BME280;26579;43.238;23.124;2022-12-07T11:48:37;96630.13;;;9.62;76.64
39411;BME280;26579;43.238;23.124;2022-12-07T11:51:07;96636.59;;;9.68;76.15
39411;BME280;26579;43.238;23.124;2022-12-07T11:53:39;96653.47;;;9.73;75.85
39411;BME280;26579;43.238;23.124;2022-12-07T11:56:12;96644.53;;;9.66;75.38
39411;BME280;26579;43.238;23.124;2022-12-07T12:01:15;96638.38;;;9.46;76.07
39411;BME280;26579;43.238;23.124;2022-12-07T12:04:23;96641.34;;;9.42;77.40
39411;BME280;26579;43.238;23.124;2022-12-07T12:06:39;96642.84;;;9.44;76.95
39411;BME280;26579;43.238;23.124;2022-12-07T12:22:39;96625.72;;;9.21;78.21
39411;BME280;26579;43.238;23.124;2022-12-07T12:25:21;96609.72;;;9.04;79.22
39411;BME280;26579;43.238;23.124;2022-12-07T12:27:50;96623.03;;;9.22;79.18
39411;BME280;26579;43.238;23.124;2022-12-07T12:30:35;96625.22;;;9.27;78.48
39411;BME280;26579;43.238;23.124;2022-12-07T12:33:12;96616.72;;;9.25;78.73
39411;BME280;26579;43.238;23.124;2022-12-07T12:35:39;96621.25;;;9.23;78.79
39411;BME280;26579;43.238;23.124;2022-12-07T12:40:55;96624.19;;;9.18;79.75
39411;BME280;26579;43.238;23.124;2022-12-07T12:43:46;96631.75;;;9.21;79.46
39411;BME280;26579;43.238;23.124;2022-12-07T12:55:17;96638.09;;;8.96;80.73
39411;BME280;26579;43.238;23.124;2022-12-07T12:57:44;96632.00;;;8.86;80.84
39411;BME280;26579;43.238;23.124;2022-12-07T13:00:21;96630.59;;;8.82;80.68
39411;BME280;26579;43.238;23.124;2022-12-07T13:02:54;96636.16;;;8.66;81.76
39411;BME280;26579;43.238;23.124;2022-12-07T13:05:23;96614.13;;;8.49;81.97
39411;BME280;26579;43.238;23.124;2022-12-07T13:18:00;96637.03;;;8.55;83.17
39411;BME280;26579;43.238;23.124;2022-12-07T13:23:38;96652.22;;;8.60;81.73
39411;BME280;26579;43.238;23.124;2022-12-07T13:34:32;96655.88;;;8.12;83.60
39411;BME280;26579;43.238;23.124;2022-12-07T13:37:01;96671.28;;;8.14;83.94
39411;BME280;26579;43.238;23.124;2022-12-07T13:39:28;96664.94;;;7.96;83.96
39411;BME280;26579;43.238;23.124;2022-12-07T13:41:54;96670.47;;;8.02;84.04
39411;BME280;26579;43.238;23.124;2022-12-07T13:44:20;96647.00;;;7.92;84.26
39411;BME280;26579;43.238;23.124;2022-12-07T13:49:54;96673.53;;;7.96;84.39
39411;BME280;26579;43.238;23.124;2022-12-07T13:57:25;96666.22;;;8.01;84.46
39411;BME280;26579;43.238;23.124;2022-12-07T13:59:52;96656.56;;;7.92;84.26
39411;BME280;26579;43.238;23.124;2022-12-07T14:04:50;96660.19;;;7.89;84.54
39411;BME280;26579;43.238;23.124;2022-12-07T14:07:23;96659.75;;;7.96;84.87
39411;BME280;26579;43.238;23.124;2022-12-07T14:10:03;96661.97;;;7.89;85.02
39411;BME280;26579;43.238;23.124;2022-12-07T14:12:31;96668.78;;;7.79;85.36
39411;BME280;26579;43.238;23.124;2022-12-07T14:14:58;96648.03;;;7.79;85.54
39411;BME280;26579;43.238;23.124;2022-12-07T14:17:26;96663.63;;;7.90;85.20
39411;BME280;26579;43.238;23.124;2022-12-07T14:20:00;96671.88;;;7.95;84.90
39411;BME280;26579;43.238;23.124;2022-12-07T14:22:38;96653.00;;;7.93;84.83
39411;BME280;26579;43.238;23.124;2022-12-07T14:27:39;96673.28;;;7.99;84.35
39411;BME280;26579;43.238;23.124;2022-12-07T14:30:16;96670.94;;;7.96;83.99
39411;BME280;26579;43.238;23.124;2022-12-07T14:32:42;96656.09;;;7.98;83.86
39411;BME280;26579;43.238;23.124;2022-12-07T14:35:12;96674.34;;;8.08;83.63
39411;BME280;26579;43.238;23.124;2022-12-07T14:37:40;96661.50;;;7.95;83.70
39411;BME280;26579;43.238;23.124;2022-12-07T14:40:07;96671.75;;;8.08;83.00
39411;BME280;26579;43.238;23.124;2022-12-07T14:42:34;96672.13;;;8.03;83.29
39411;BME280;26579;43.238;23.124;2022-12-07T14:45:00;96664.94;;;7.96;83.73
39411;BME280;26579;43.238;23.124;2022-12-07T14:47:27;96667.84;;;7.91;83.71
39411;BME280;26579;43.238;23.124;2022-12-07T14:49:52;96643.09;;;7.76;84.04
39411;BME280;26579;43.238;23.124;2022-12-07T14:52:26;96663.84;;;7.87;83.61
39411;BME280;26579;43.238;23.124;2022-12-07T14:54:52;96674.34;;;7.97;83.64
39411;BME280;26579;43.238;23.124;2022-12-07T14:57:18;96671.53;;;7.88;83.63
39411;BME280;26579;43.238;23.124;2022-12-07T14:59:44;96677.53;;;7.89;83.76
39411;BME280;26579;43.238;23.124;2022-12-07T15:02:12;96680.09;;;7.78;84.61
39411;BME280;26579;43.238;23.124;2022-12-07T15:04:38;96666.78;;;7.71;84.56
39411;BME280;26579;43.238;23.124;2022-12-07T15:07:05;96652.50;;;7.65;85.22
39411;BME280;26579;43.238;23.124;2022-12-07T15:09:31;96685.59;;;7.73;85.02
39411;BME280;26579;43.238;23.124;2022-12-07T15:11:57;96670.88;;;7.62;84.88